Time;durP1;ratioP1;P1;durP2;ratioP2;P2;SDS_P1;SDS_P2;PMS_P1;PMS_P2;Temp;Humidity;BMP_temperature;BMP_pressure;BME280_temperature;BME280_humidity;BME280_pressure;Samples;Min_cycle;Max_cycle;Signal;HPM_P1;HPM_P2
2022/11/23 00:01:29;;;;;;;0.10;0.10;;;;;;;5.65;79.75;97933.78;7363907;19;20730;-58
2022/11/23 00:03:56;;;;;;;0.10;0.10;;;;;;;5.70;80.10;97919.72;7264544;19;2004362;-58
2022/11/23 00:06:23;;;;;;;0.00;0.00;;;;;;;5.77;79.65;97907.28;7365177;19;20018;-58
2022/11/23 00:08:50;;;;;;;0.00;0.00;;;;;;;5.83;79.88;97909.63;7365273;19;20021;-58
2022/11/23 00:11:16;;;;;;;0.00;0.00;;;;;;;5.87;79.62;97905.94;7364841;19;20030;-57
2022/11/23 00:13:41;;;;;;;0.00;0.00;;;;;;;5.92;79.71;97893.63;7360802;19;20011;-58
2022/11/23 00:16:10;;;;;;;0.03;0.03;;;;;;;5.97;79.91;97888.25;7362418;19;20031;-58
2022/11/23 00:18:35;;;;;;;0.00;0.00;;;;;;;5.99;79.42;97891.59;7366016;19;20884;-58
2022/11/23 00:21:28;;;;;;;0.10;0.10;;;;;;;6.06;79.70;97871.41;7364087;19;20014;-58
2022/11/23 00:23:54;;;;;;;0.00;0.00;;;;;;;6.06;79.76;97853.28;7261699;19;2004379;-57
2022/11/23 00:26:19;;;;;;;0.10;0.10;;;;;;;6.07;79.72;97847.19;7361106;19;20014;-58
2022/11/23 00:28:45;;;;;;;0.10;0.10;;;;;;;6.09;79.46;97827.22;7364096;19;20011;-57
2022/11/23 00:31:13;;;;;;;0.10;0.10;;;;;;;6.12;79.28;97822.72;7364941;19;20018;-58
2022/11/23 00:33:38;;;;;;;;;;;;;;;6.18;79.61;97821.56;7364271;19;20010;-58
2022/11/23 00:36:11;;;;;;;0.10;0.10;;;;;;;6.13;79.32;97802.81;7361600;19;20393;-58
2022/11/23 00:38:36;;;;;;;0.10;0.10;;;;;;;6.17;79.52;97801.75;7360505;19;20033;-58
2022/11/23 00:41:05;;;;;;;0.00;0.00;;;;;;;6.19;79.67;97789.56;7365302;19;21067;-57
2022/11/23 00:43:31;;;;;;;0.08;0.08;;;;;;;6.19;79.52;97779.22;7360530;19;20849;-58
2022/11/23 00:46:02;;;;;;;0.10;0.10;;;;;;;6.23;79.28;97775.53;7362387;19;21342;-57
2022/11/23 00:48:27;;;;;;;0.00;0.00;;;;;;;6.23;79.39;97754.78;7363819;19;20089;-57
2022/11/23 00:50:53;;;;;;;0.10;0.10;;;;;;;6.27;79.25;97745.13;7364603;19;20016;-57
2022/11/23 00:53:18;;;;;;;0.10;0.10;;;;;;;6.29;79.37;97744.13;7362706;19;20007;-58
2022/11/23 00:55:54;;;;;;;0.08;0.08;;;;;;;6.33;79.79;97724.88;7364773;19;20006;-58
2022/11/23 00:58:20;;;;;;;0.05;0.05;;;;;;;6.37;79.31;97731.59;7361608;19;20014;-58
2022/11/23 01:00:46;;;;;;;0.10;0.10;;;;;;;6.32;79.39;97712.00;7364403;19;20025;-56
2022/11/23 01:03:11;;;;;;;0.00;0.00;;;;;;;6.45;79.15;97716.47;7364574;19;20070;-58
2022/11/23 01:05:37;;;;;;;0.00;0.00;;;;;;;6.49;79.41;97705.03;7365040;19;20012;-58
2022/11/23 01:08:04;;;;;;;0.00;0.00;;;;;;;6.55;79.32;97693.47;7361317;19;20781;-58
2022/11/23 01:10:30;;;;;;;0.00;0.00;;;;;;;6.59;79.42;97675.97;7364288;19;20006;-58
2022/11/23 01:12:55;;;;;;;0.10;0.10;;;;;;;6.64;79.65;97673.97;7362525;19;20764;-58
2022/11/23 01:15:21;;;;;;;0.10;0.10;;;;;;;6.71;79.24;97664.94;7364456;19;22519;-57
2022/11/23 01:17:46;;;;;;;0.00;0.00;;;;;;;6.77;79.83;97664.59;7360357;19;20090;-58
2022/11/23 01:20:12;;;;;;;0.00;0.00;;;;;;;6.83;79.20;97642.66;7363655;19;20018;-58
2022/11/23 01:22:37;;;;;;;0.10;0.10;;;;;;;6.90;79.84;97637.06;7361881;19;20111;-58
2022/11/23 01:25:03;;;;;;;0.00;0.00;;;;;;;6.95;79.50;97629.84;7362873;19;20010;-57
2022/11/23 01:27:28;;;;;;;0.00;0.00;;;;;;;7.02;79.94;97618.19;7359226;19;20573;-57
2022/11/23 01:29:54;;;;;;;0.00;0.00;;;;;;;7.09;79.38;97607.44;7364169;19;20010;-58
2022/11/23 01:32:19;;;;;;;0.00;0.00;;;;;;;7.18;80.29;97609.53;7361053;19;20014;-58
2022/11/23 01:34:45;;;;;;;0.00;0.00;;;;;;;7.24;79.63;97603.97;7363498;19;20066;-58
2022/11/23 01:37:10;;;;;;;0.00;0.00;;;;;;;7.31;79.69;97592.31;7362371;19;20015;-58
2022/11/23 01:39:35;;;;;;;0.00;0.00;;;;;;;7.37;79.56;97584.16;7364240;19;20644;-57
2022/11/23 01:42:05;;;;;;;0.00;0.00;;;;;;;7.42;79.15;97576.09;7362185;19;20039;-57
2022/11/23 01:44:32;;;;;;;0.10;0.10;;;;;;;7.35;79.11;97543.63;7363288;19;20772;-58
2022/11/23 01:47:03;;;;;;;0.00;0.00;;;;;;;7.43;78.91;97547.44;7363058;19;20031;-58
2022/11/23 01:49:34;;;;;;;0.00;0.00;;;;;;;7.58;79.14;97574.25;7370373;19;20014;-58
2022/11/23 01:52:05;;;;;;;0.08;0.08;;;;;;;7.61;79.33;97550.69;7365515;19;20489;-57
2022/11/23 01:54:35;;;;;;;0.00;0.00;;;;;;;7.66;79.53;97563.41;7370282;19;20014;-58
2022/11/23 01:57:06;;;;;;;0.00;0.00;;;;;;;7.73;80.06;97551.69;7367289;19;20021;-59
2022/11/23 01:59:34;;;;;;;0.00;0.00;;;;;;;7.76;80.14;97548.94;7369296;19;20037;-58
2022/11/23 02:02:00;;;;;;;0.00;0.00;;;;;;;7.80;80.42;97543.41;7368677;19;20010;-58
2022/11/23 02:04:31;;;;;;;0.00;0.00;;;;;;;7.87;80.49;97530.91;7369020;19;20420;-59
2022/11/23 02:06:59;;;;;;;0.10;0.10;;;;;;;7.90;80.43;97515.09;7366708;19;20726;-58
2022/11/23 02:09:24;;;;;;;;;;;;;;;7.98;80.38;97497.28;7368480;19;20026;-59
2022/11/23 02:11:51;;;;;;;0.00;0.00;;;;;;;7.96;79.98;97483.56;7368688;19;20274;-57
2022/11/23 02:14:16;;;;;;;0.00;0.00;;;;;;;8.01;79.98;97481.50;7367616;19;20036;-59
2022/11/23 02:16:42;;;;;;;0.00;0.00;;;;;;;8.04;80.29;97486.50;7368174;19;20022;-60
2022/11/23 02:19:23;;;;;;;0.05;0.05;;;;;;;8.10;80.37;97463.63;7367422;19;20467;-60
2022/11/23 02:21:51;;;;;;;0.00;0.00;;;;;;;8.13;80.37;97459.09;7367229;19;20031;-60
2022/11/23 02:24:27;;;;;;;0.00;0.00;;;;;;;8.17;80.28;97436.34;7368630;19;20007;-60
2022/11/23 02:26:53;;;;;;;0.10;0.10;;;;;;;8.18;80.70;97425.00;7367749;19;20791;-60
2022/11/23 02:29:24;;;;;;;0.00;0.00;;;;;;;8.13;80.22;97365.53;7365839;19;20098;-59
2022/11/23 02:31:49;;;;;;;0.10;0.10;;;;;;;8.21;80.53;97337.28;7367155;19;20014;-60
2022/11/23 02:34:18;;;;;;;0.00;0.00;;;;;;;8.28;80.64;97330.72;7366717;19;20032;-60
2022/11/23 02:36:49;;;;;;;0.03;0.03;;;;;;;8.39;80.51;97360.38;7367139;19;20014;-59
2022/11/23 02:39:36;;;;;;;0.00;0.00;;;;;;;8.44;80.96;97320.13;7367746;19;20022;-60
2022/11/23 02:42:02;;;;;;;0.03;0.03;;;;;;;8.45;80.58;97314.00;7367984;19;20805;-59
2022/11/23 02:44:48;;;;;;;0.00;0.00;;;;;;;8.43;81.18;97289.06;7366758;19;20097;-58
2022/11/23 02:47:14;;;;;;;0.00;0.00;;;;;;;8.58;80.80;97291.44;7366600;19;20039;-61
2022/11/23 02:49:41;;;;;;;0.00;0.00;;;;;;;8.65;81.12;97283.19;7365194;19;20019;-60
2022/11/23 02:52:07;;;;;;;0.00;0.00;;;;;;;8.71;80.92;97272.34;7367860;19;20014;-60
2022/11/23 02:54:33;;;;;;;0.03;0.03;;;;;;;8.77;80.83;97266.75;7366610;19;20465;-60
2022/11/23 02:56:59;;;;;;;0.00;0.00;;;;;;;8.83;81.09;97245.50;7366971;19;20011;-60
2022/11/23 02:59:24;;;;;;;0.10;0.10;;;;;;;8.92;81.09;97238.78;7341559;19;20477;-60
2022/11/23 03:01:50;;;;;;;0.00;0.00;;;;;;;8.98;81.11;97212.34;7327242;19;20031;-60
2022/11/23 03:04:15;;;;;;;0.05;0.05;;;;;;;9.04;80.85;97202.31;7354804;19;20018;-60
2022/11/23 03:06:41;;;;;;;0.00;0.00;;;;;;;9.13;80.85;97194.78;7358773;19;20018;-60
2022/11/23 03:09:07;;;;;;;0.00;0.00;;;;;;;9.22;80.85;97207.13;7360391;19;20399;-61
2022/11/23 03:11:32;;;;;;;0.00;0.00;;;;;;;9.29;80.98;97198.75;7361668;19;20014;-60
2022/11/23 03:13:58;;;;;;;0.00;0.00;;;;;;;9.37;81.21;97185.16;7360496;19;20047;-60
2022/11/23 03:16:24;;;;;;;0.00;0.00;;;;;;;9.46;80.99;97175.84;7358341;19;20017;-60
2022/11/23 03:18:50;;;;;;;0.00;0.00;;;;;;;9.54;81.11;97169.13;7362880;19;20010;-60
2022/11/23 03:21:15;;;;;;;0.00;0.00;;;;;;;9.61;81.01;97151.25;7358824;19;20049;-60
2022/11/23 03:23:41;;;;;;;0.10;0.10;;;;;;;9.70;81.01;97141.91;7363398;19;20006;-60
2022/11/23 03:26:06;;;;;;;0.00;0.00;;;;;;;9.78;81.23;97150.81;7362704;19;20057;-61
2022/11/23 03:28:31;;;;;;;0.00;0.00;;;;;;;9.87;81.21;97185.75;7356181;19;20006;-61
2022/11/23 03:30:57;;;;;;;0.00;0.00;;;;;;;9.96;80.74;97143.34;7361726;19;20010;-60
2022/11/23 03:33:22;;;;;;;0.05;0.05;;;;;;;10.01;81.31;97140.41;7356275;19;20030;-60
2022/11/23 03:35:48;;;;;;;0.10;0.10;;;;;;;10.10;80.83;97140.50;7363324;19;20122;-61
2022/11/23 03:38:13;;;;;;;0.00;0.00;;;;;;;10.19;80.97;97143.34;7361907;19;20022;-61
2022/11/23 03:40:39;;;;;;;0.05;0.05;;;;;;;10.25;81.02;97148.97;7360952;19;20018;-61
2022/11/23 03:43:04;;;;;;;0.00;0.00;;;;;;;10.33;80.81;97137.91;7362272;19;20014;-60
2022/11/23 03:45:30;;;;;;;0.00;0.00;;;;;;;10.39;80.86;97129.59;7355580;19;20014;-60
2022/11/23 03:47:55;;;;;;;0.10;0.10;;;;;;;10.45;80.92;97108.28;7365711;19;20095;-60
2022/11/23 03:50:20;;;;;;;0.00;0.00;;;;;;;10.50;80.64;97098.28;7355383;19;20627;-60
2022/11/23 03:52:49;;;;;;;0.00;0.00;;;;;;;10.54;80.47;97071.03;7363043;19;20015;-59
2022/11/23 03:55:15;;;;;;;0.00;0.00;;;;;;;10.63;80.58;97080.69;7364520;19;20041;-61
2022/11/23 03:57:40;;;;;;;0.00;0.00;;;;;;;10.68;80.80;97061.22;7362372;19;20655;-60
2022/11/23 04:00:07;;;;;;;0.00;0.00;;;;;;;10.75;80.82;97044.13;7363971;19;20627;-61
2022/11/23 04:02:33;;;;;;;0.00;0.00;;;;;;;10.77;80.54;97024.78;7362672;19;20030;-60
2022/11/23 04:04:58;;;;;;;0.10;0.10;;;;;;;10.83;80.28;97013.00;7354500;19;20010;-61
2022/11/23 04:07:24;;;;;;;0.00;0.00;;;;;;;10.88;80.33;97010.84;7360482;19;20474;-61
2022/11/23 04:09:49;;;;;;;0.03;0.03;;;;;;;10.86;80.22;96987.47;7362966;19;20019;-61
2022/11/23 04:12:14;;;;;;;0.00;0.00;;;;;;;10.96;80.66;96982.31;7361723;19;20018;-60
2022/11/23 04:14:40;;;;;;;0.10;0.10;;;;;;;10.96;80.45;96966.66;7364765;19;20014;-60
2022/11/23 04:17:05;;;;;;;0.00;0.00;;;;;;;11.05;80.41;96992.00;7362664;19;20042;-59
2022/11/23 04:19:31;;;;;;;0.00;0.00;;;;;;;11.07;80.61;96963.16;7355045;19;20414;-61
2022/11/23 04:21:57;;;;;;;0.10;0.10;;;;;;;11.14;80.43;96965.09;7365602;19;20003;-61
2022/11/23 04:24:22;;;;;;;0.00;0.00;;;;;;;11.20;80.69;96973.38;7364332;19;20014;-62
2022/11/23 04:26:48;;;;;;;0.10;0.10;;;;;;;11.23;80.55;96954.84;7364775;19;20063;-62
2022/11/23 04:29:13;;;;;;;0.10;0.10;;;;;;;11.26;80.71;96959.81;7364467;19;20015;-62
2022/11/23 04:31:38;;;;;;;0.10;0.10;;;;;;;11.28;80.57;96960.50;7363127;19;20082;-62
2022/11/23 04:34:04;;;;;;;0.03;0.03;;;;;;;11.33;80.01;97015.78;7361877;19;20014;-62
2022/11/23 04:36:29;;;;;;;0.00;0.00;;;;;;;11.36;80.23;97052.09;7363639;19;20356;-62
2022/11/23 04:38:55;;;;;;;0.00;0.00;;;;;;;11.34;79.13;97044.38;7362105;19;20015;-63
2022/11/23 04:41:21;;;;;;;0.00;0.00;;;;;;;11.24;78.95;97037.44;7364396;19;20025;-62
2022/11/23 04:43:48;;;;;;;0.00;0.00;;;;;;;11.16;78.54;97045.94;7362621;19;20018;-61
2022/11/23 04:46:14;;;;;;;0.00;0.00;;;;;;;11.05;78.55;97046.84;7362642;19;20109;-61
2022/11/23 04:48:39;;;;;;;0.00;0.00;;;;;;;10.95;78.33;97053.78;7360349;19;20094;-61
2022/11/23 04:51:05;;;;;;;0.00;0.00;;;;;;;10.84;78.26;97061.63;7364172;19;20485;-61
2022/11/23 04:53:30;;;;;;;0.03;0.03;;;;;;;10.74;78.61;97060.72;7363270;19;20023;-61
2022/11/23 04:55:55;;;;;;;0.03;0.03;;;;;;;10.59;78.58;97068.88;7364475;19;20106;-60
2022/11/23 04:58:21;;;;;;;0.00;0.00;;;;;;;10.55;78.98;97077.88;7362773;19;20010;-61
2022/11/23 05:00:46;;;;;;;0.00;0.00;;;;;;;10.49;78.76;97091.44;7362643;19;20006;-59
2022/11/23 05:03:12;;;;;;;0.00;0.00;;;;;;;10.41;79.00;97070.34;7361816;19;20018;-61
2022/11/23 05:05:38;;;;;;;0.00;0.00;;;;;;;10.34;78.99;97069.16;7364614;19;20014;-61
2022/11/23 05:08:04;;;;;;;0.03;0.03;;;;;;;10.25;79.39;97069.91;7361974;19;20014;-61
2022/11/23 05:10:29;;;;;;;0.00;0.00;;;;;;;10.14;79.51;97068.94;7362644;19;20011;-61
2022/11/23 05:12:55;;;;;;;0.10;0.10;;;;;;;10.14;79.37;97073.34;7364738;19;20021;-60
2022/11/23 05:15:20;;;;;;;0.00;0.00;;;;;;;10.09;79.65;97076.31;7363074;19;20752;-61
2022/11/23 05:17:46;;;;;;;0.10;0.10;;;;;;;10.03;79.72;97081.97;7361376;19;20017;-60
2022/11/23 05:20:12;;;;;;;0.00;0.00;;;;;;;10.01;79.99;97078.66;7362770;19;20078;-61
2022/11/23 05:22:37;;;;;;;0.00;0.00;;;;;;;9.95;79.84;97089.56;7362121;19;20482;-61
2022/11/23 05:25:03;;;;;;;0.05;0.05;;;;;;;9.88;79.90;97083.16;7360837;19;20721;-61
2022/11/23 05:27:28;;;;;;;0.10;0.10;;;;;;;9.90;79.84;97091.72;7358942;19;20015;-59
2022/11/23 05:29:54;;;;;;;0.00;0.00;;;;;;;9.86;79.69;97098.09;7364014;19;20006;-61
2022/11/23 05:32:19;;;;;;;0.00;0.00;;;;;;;9.83;79.85;97098.31;7361923;19;20018;-61
2022/11/23 05:34:44;;;;;;;0.03;0.03;;;;;;;9.78;80.28;97087.44;7362342;19;20016;-61
2022/11/23 05:37:10;;;;;;;0.00;0.00;;;;;;;9.75;80.39;97101.53;7361301;19;20070;-61
2022/11/23 05:39:35;;;;;;;0.00;0.00;;;;;;;9.74;80.49;97106.88;7362725;19;20636;-61
2022/11/23 05:42:01;;;;;;;0.00;0.00;;;;;;;9.72;80.11;97103.53;7361400;19;20018;-61
2022/11/23 05:44:26;;;;;;;0.10;0.10;;;;;;;9.69;79.81;97104.63;7363496;19;20014;-61
2022/11/23 05:46:51;;;;;;;0.00;0.00;;;;;;;9.56;80.01;97109.91;7362760;19;20078;-61
2022/11/23 05:49:17;;;;;;;0.00;0.00;;;;;;;9.59;79.86;97130.53;7361096;19;20014;-61
2022/11/23 05:51:42;;;;;;;0.00;0.00;;;;;;;9.58;80.04;97139.31;7362319;19;20416;-61
2022/11/23 05:54:08;;;;;;;0.10;0.10;;;;;;;9.56;79.80;97143.78;7360505;19;20034;-61
2022/11/23 05:56:33;;;;;;;0.00;0.00;;;;;;;9.41;79.79;97110.25;7362854;19;20010;-61
2022/11/23 05:58:59;;;;;;;0.00;0.00;;;;;;;9.51;80.07;97148.50;7359711;19;20006;-61
2022/11/23 06:01:24;;;;;;;0.00;0.00;;;;;;;9.47;79.78;97146.25;7363559;19;20042;-61
2022/11/23 06:03:50;;;;;;;0.00;0.00;;;;;;;9.42;79.92;97159.59;7360892;19;20030;-61
2022/11/23 06:06:15;;;;;;;0.10;0.10;;;;;;;9.39;79.79;97154.66;7360307;19;20062;-61
2022/11/23 06:08:41;;;;;;;0.08;0.08;;;;;;;9.36;80.01;97165.28;7361802;19;20034;-61
2022/11/23 06:11:06;;;;;;;0.10;0.10;;;;;;;9.34;80.21;97169.78;7360074;19;20006;-61
2022/11/23 06:13:32;;;;;;;0.03;0.03;;;;;;;9.31;80.21;97183.00;7361733;19;20003;-61
2022/11/23 06:15:57;;;;;;;0.00;0.00;;;;;;;9.17;80.09;97172.78;7359176;19;20038;-59
2022/11/23 06:18:22;;;;;;;0.00;0.00;;;;;;;9.24;79.96;97193.06;7362710;19;20714;-61
2022/11/23 06:20:48;;;;;;;0.10;0.10;;;;;;;9.22;80.21;97183.69;7359097;19;20006;-61
2022/11/23 06:23:13;;;;;;;0.00;0.00;;;;;;;9.18;80.13;97193.50;7361796;19;20015;-61
2022/11/23 06:25:39;;;;;;;0.10;0.10;;;;;;;9.07;80.21;97186.50;7358051;19;20018;-61
2022/11/23 06:28:05;;;;;;;0.10;0.10;;;;;;;9.11;80.32;97213.09;7359845;19;20039;-60
2022/11/23 06:30:30;;;;;;;0.00;0.00;;;;;;;9.06;80.06;97221.25;7360492;19;20577;-61
2022/11/23 06:32:56;;;;;;;0.00;0.00;;;;;;;9.05;80.08;97234.38;7362338;19;20030;-61
2022/11/23 06:35:22;;;;;;;0.00;0.00;;;;;;;8.87;80.39;97213.13;7366320;19;20022;-60
2022/11/23 06:37:49;;;;;;;0.00;0.00;;;;;;;8.99;80.14;97240.84;7364996;19;20014;-60
2022/11/23 06:40:15;;;;;;;0.00;0.00;;;;;;;8.94;80.70;97248.16;7363526;19;20101;-60
2022/11/23 06:42:41;;;;;;;0.00;0.00;;;;;;;8.93;80.54;97256.91;7368114;19;20017;-61
2022/11/23 06:45:07;;;;;;;0.00;0.00;;;;;;;8.92;80.51;97270.88;7367314;19;20006;-61
2022/11/23 06:47:32;;;;;;;0.00;0.00;;;;;;;8.90;80.11;97280.53;7367195;19;20034;-61
2022/11/23 06:49:58;;;;;;;0.00;0.00;;;;;;;8.86;80.61;97273.88;7366279;19;20014;-61
2022/11/23 06:52:23;;;;;;;0.00;0.00;;;;;;;8.85;80.09;97269.63;7369394;19;20013;-60
2022/11/23 06:54:49;;;;;;;0.00;0.00;;;;;;;8.82;80.18;97282.88;7366994;19;20030;-61
2022/11/23 06:57:14;;;;;;;0.00;0.00;;;;;;;8.80;80.40;97274.31;7366651;19;20015;-60
2022/11/23 06:59:39;;;;;;;0.08;0.08;;;;;;;8.77;80.04;97280.59;7356105;19;20015;-61
2022/11/23 07:02:05;;;;;;;0.10;0.10;;;;;;;8.58;80.43;97273.22;7362475;19;21855;-61
2022/11/23 07:04:31;;;;;;;0.10;0.10;;;;;;;8.71;80.41;97307.00;7364913;19;20101;-61
2022/11/23 07:06:56;;;;;;;0.00;0.00;;;;;;;8.70;80.13;97294.09;7355232;19;20011;-61
2022/11/23 07:09:22;;;;;;;0.00;0.00;;;;;;;8.68;80.38;97303.81;7359806;19;20034;-61
2022/11/23 07:11:48;;;;;;;0.00;0.00;;;;;;;8.64;80.27;97323.16;7360944;19;20549;-61
2022/11/23 07:14:13;;;;;;;0.00;0.00;;;;;;;8.62;80.44;97330.22;7363245;19;20026;-60
2022/11/23 07:16:38;;;;;;;0.10;0.10;;;;;;;8.60;80.31;97326.91;7361808;19;20009;-61
2022/11/23 07:19:04;;;;;;;0.00;0.00;;;;;;;8.56;80.14;97334.91;7366709;19;20113;-61
2022/11/23 07:21:29;;;;;;;0.00;0.00;;;;;;;8.54;80.08;97338.56;7363666;19;20625;-61
2022/11/23 07:23:55;;;;;;;0.10;0.10;;;;;;;8.49;80.39;97351.88;7360306;19;20034;-61
2022/11/23 07:26:20;;;;;;;0.00;0.00;;;;;;;8.47;80.42;97351.16;7363713;19;20022;-58
2022/11/23 07:28:46;;;;;;;0.05;0.05;;;;;;;8.44;80.18;97359.13;7359714;19;20010;-61
2022/11/23 07:31:14;;;;;;;0.05;0.05;;;;;;;8.44;79.97;97379.94;7362613;19;20469;-61
2022/11/23 07:33:43;;;;;;;0.00;0.00;;;;;;;8.33;80.34;97364.19;7364092;19;20022;-59
2022/11/23 07:36:08;;;;;;;0.10;0.10;;;;;;;8.40;80.38;97388.88;7365564;19;20026;-60
2022/11/23 07:38:33;;;;;;;0.10;0.10;;;;;;;8.35;80.23;97388.31;7356087;19;20006;-61
2022/11/23 07:41:00;;;;;;;0.10;0.10;;;;;;;8.23;80.12;97387.38;7365597;19;20470;-61
2022/11/23 07:43:26;;;;;;;0.00;0.00;;;;;;;8.33;80.45;97403.19;7361460;19;20027;-61
2022/11/23 07:45:57;;;;;;;0.00;0.00;;;;;;;8.22;80.30;97390.91;7364619;19;20046;-61
2022/11/23 07:48:23;;;;;;;0.00;0.00;;;;;;;8.28;80.19;97416.50;7365066;19;20002;-61
2022/11/23 07:50:52;;;;;;;0.03;0.03;;;;;;;8.27;80.05;97422.63;7361136;19;20110;-61
2022/11/23 07:53:17;;;;;;;0.00;0.00;;;;;;;8.25;79.96;97421.06;7358180;19;20409;-61
2022/11/23 07:55:43;;;;;;;0.00;0.00;;;;;;;8.24;80.01;97424.59;7357485;19;20013;-61
2022/11/23 07:58:09;;;;;;;0.00;0.00;;;;;;;8.23;80.51;97430.72;7363689;19;20026;-61
2022/11/23 08:00:34;;;;;;;0.00;0.00;;;;;;;8.21;80.19;97435.19;7366837;19;20403;-61
2022/11/23 08:03:00;;;;;;;0.00;0.00;;;;;;;8.19;80.48;97434.47;7362366;19;20037;-61
2022/11/23 08:05:25;;;;;;;0.00;0.00;;;;;;;8.10;80.40;97416.84;7366274;19;20738;-61
2022/11/23 08:07:56;;;;;;;0.00;0.00;;;;;;;8.15;79.99;97444.22;7363932;19;20032;-61
2022/11/23 08:10:22;;;;;;;0.00;0.00;;;;;;;8.16;80.06;97438.09;7364767;19;20018;-61
2022/11/23 08:12:48;;;;;;;0.00;0.00;;;;;;;8.15;80.41;97452.00;7352811;19;20010;-61
2022/11/23 08:15:13;;;;;;;0.00;0.00;;;;;;;8.11;80.09;97445.38;7357253;19;20033;-61
2022/11/23 08:17:39;;;;;;;0.00;0.00;;;;;;;8.12;80.37;97443.59;7357173;19;20086;-61
2022/11/23 08:20:05;;;;;;;0.00;0.00;;;;;;;8.12;80.28;97446.19;7354539;19;20030;-61
2022/11/23 08:22:30;;;;;;;0.10;0.10;;;;;;;8.12;80.14;97447.03;7357236;19;20011;-61
2022/11/23 08:24:55;;;;;;;0.00;0.00;;;;;;;8.11;80.21;97444.50;7357975;19;20011;-60
2022/11/23 08:27:21;;;;;;;0.03;0.03;;;;;;;8.12;80.33;97436.63;7355687;19;20012;-62
2022/11/23 08:29:46;;;;;;;0.03;0.03;;;;;;;8.11;80.34;97444.50;7355357;19;20859;-60
2022/11/23 08:32:12;;;;;;;0.00;0.00;;;;;;;8.11;80.59;97439.31;7357997;19;20011;-61
2022/11/23 08:34:37;;;;;;;0.10;0.10;;;;;;;8.11;80.40;97449.72;7356357;19;20022;-59
2022/11/23 08:37:03;;;;;;;0.00;0.00;;;;;;;8.13;80.49;97437.47;7358661;19;20007;-61
2022/11/23 08:39:28;;;;;;;0.10;0.10;;;;;;;8.11;80.12;97432.38;7356906;19;20030;-61
2022/11/23 08:41:53;;;;;;;0.00;0.00;;;;;;;8.11;80.25;97428.91;7355766;19;20003;-61
2022/11/23 08:44:19;;;;;;;0.00;0.00;;;;;;;8.14;80.47;97433.94;7356762;19;24370;-61
2022/11/23 08:46:44;;;;;;;0.00;0.00;;;;;;;8.13;80.34;97433.09;7355970;19;20015;-61
2022/11/23 08:49:09;;;;;;;0.00;0.00;;;;;;;8.14;80.45;97433.94;7356272;19;20074;-61
2022/11/23 08:51:35;;;;;;;0.00;0.00;;;;;;;8.15;80.63;97433.00;7357353;19;20032;-61
2022/11/23 08:54:00;;;;;;;0.10;0.10;;;;;;;8.14;80.71;97431.31;7353602;19;20113;-61
2022/11/23 08:56:26;;;;;;;0.03;0.03;;;;;;;8.12;80.50;97422.81;7354770;19;20580;-61
2022/11/23 08:58:51;;;;;;;0.00;0.00;;;;;;;8.18;80.39;97430.19;7356285;19;20032;-61
2022/11/23 09:01:17;;;;;;;0.00;0.00;;;;;;;8.19;80.36;97432.69;7357719;19;20017;-60
2022/11/23 09:03:43;;;;;;;0.00;0.00;;;;;;;8.21;80.80;97435.19;7355418;19;20862;-60
2022/11/23 09:06:10;;;;;;;0.03;0.03;;;;;;;8.21;80.43;97433.44;7356667;19;20014;-61
2022/11/23 09:08:35;;;;;;;0.10;0.10;;;;;;;8.30;81.27;97429.38;7355718;19;20014;-61
2022/11/23 09:11:03;;;;;;;0.08;0.08;;;;;;;8.37;81.18;97433.28;7357666;19;20725;-60
2022/11/23 09:13:29;;;;;;;0.00;0.00;;;;;;;8.45;81.50;97433.59;7356228;19;20875;-61
2022/11/23 09:15:58;;;;;;;0.10;0.10;;;;;;;8.57;81.65;97430.19;7358387;19;20022;-60
2022/11/23 09:18:25;;;;;;;0.10;0.10;;;;;;;8.65;81.20;97431.44;7357900;19;20026;-61
2022/11/23 09:20:51;;;;;;;0.00;0.00;;;;;;;8.74;80.85;97434.25;7356360;19;20037;-60
2022/11/23 09:23:16;;;;;;;0.00;0.00;;;;;;;8.81;80.54;97450.28;7356119;19;20413;-60
2022/11/23 09:25:42;;;;;;;0.10;0.10;;;;;;;8.89;80.43;97454.97;7355445;19;20018;-60
2022/11/23 09:28:07;;;;;;;0.00;0.00;;;;;;;8.93;80.35;97454.69;7356629;19;20006;-61
2022/11/23 09:30:33;;;;;;;0.00;0.00;;;;;;;8.99;80.33;97467.25;7353797;19;20088;-60
2022/11/23 09:32:59;;;;;;;0.10;0.10;;;;;;;9.05;80.33;97473.81;7356601;19;20057;-60
2022/11/23 09:35:24;;;;;;;0.00;0.00;;;;;;;9.13;80.32;97483.72;7354301;19;20609;-60
2022/11/23 09:37:58;;;;;;;0.00;0.00;;;;;;;9.24;80.31;97479.44;7355367;19;20016;-60
2022/11/23 09:40:30;;;;;;;0.10;0.10;;;;;;;9.27;80.79;97465.34;7353533;19;20007;-61
2022/11/23 09:43:23;;;;;;;0.10;0.10;;;;;;;9.49;80.51;97475.13;7353530;19;20014;-61
2022/11/23 09:45:54;;;;;;;0.03;0.03;;;;;;;9.62;80.66;97481.97;7252175;19;2004290;-60
2022/11/23 09:48:46;;;;;;;0.10;0.10;;;;;;;9.78;80.64;97486.09;7353876;19;20014;-60
2022/11/23 09:51:19;;;;;;;0.10;0.10;;;;;;;9.87;79.97;97488.06;7252172;19;2004508;-60
2022/11/23 09:53:51;;;;;;;0.10;0.10;;;;;;;9.92;79.32;97483.34;7354333;19;20014;-61
2022/11/23 09:56:25;;;;;;;0.00;0.00;;;;;;;9.99;79.18;97495.03;7353615;19;20743;-60
2022/11/23 09:58:57;;;;;;;0.10;0.10;;;;;;;10.05;79.23;97501.56;7352635;19;20014;-60
2022/11/23 10:01:23;;;;;;;0.10;0.10;;;;;;;10.09;79.24;97488.19;7354629;19;20070;-60
2022/11/23 10:03:49;;;;;;;0.00;0.00;;;;;;;10.23;78.86;97483.75;7353473;19;20046;-59
2022/11/23 10:06:17;;;;;;;0.10;0.10;;;;;;;10.42;79.06;97499.75;7354007;19;20882;-60
2022/11/23 10:09:08;;;;;;;0.10;0.10;;;;;;;10.55;78.47;97508.34;7356874;19;20566;-60
2022/11/23 10:11:49;;;;;;;0.00;0.00;;;;;;;10.60;78.27;97508.84;7361377;19;20824;-61
2022/11/23 10:14:45;;;;;;;0.00;0.00;;;;;;;10.71;78.66;97530.72;7360643;19;20463;-60
2022/11/23 10:17:31;;;;;;;0.00;0.00;;;;;;;10.75;78.15;97516.50;7256961;19;2004363;-60
2022/11/23 10:20:33;;;;;;;0.10;0.10;;;;;;;10.80;77.67;97530.88;7258397;19;2004331;-61
2022/11/23 10:23:01;;;;;;;0.03;0.03;;;;;;;10.79;77.32;97549.22;7258286;19;2004492;-60
2022/11/23 10:25:48;;;;;;;0.00;0.00;;;;;;;10.83;77.79;97542.84;7361023;19;20006;-60
2022/11/23 10:28:20;;;;;;;0.10;0.10;;;;;;;10.89;77.98;97534.53;7258380;19;2004435;-61
2022/11/23 10:31:09;;;;;;;0.10;0.10;;;;;;;11.03;78.39;97531.75;7359407;19;20030;-60
2022/11/23 10:33:54;;;;;;;0.10;0.10;;;;;;;11.22;78.67;97561.69;7359298;19;20098;-61
2022/11/23 10:36:19;;;;;;;0.08;0.08;;;;;;;11.32;77.49;97560.06;7359368;19;20014;-60
2022/11/23 10:38:49;;;;;;;0.10;0.10;;;;;;;11.50;77.63;97561.25;7359701;19;20206;-61
2022/11/23 10:41:15;;;;;;;0.00;0.00;;;;;;;11.65;76.94;97562.69;7359524;19;21225;-60
2022/11/23 10:43:50;;;;;;;0.00;0.00;;;;;;;11.92;77.11;97574.63;7360244;19;20032;-61
2022/11/23 10:46:24;;;;;;;0.00;0.00;;;;;;;12.04;76.37;97565.81;7360323;19;20023;-60
2022/11/23 10:48:51;;;;;;;0.10;0.10;;;;;;;12.12;76.07;97579.13;7357836;19;20021;-61
2022/11/23 10:51:26;;;;;;;0.10;0.10;;;;;;;12.26;75.25;97575.38;7359118;19;20747;-60
2022/11/23 10:53:57;;;;;;;0.00;0.00;;;;;;;12.27;75.51;97566.63;7358802;19;20094;-60
2022/11/23 10:56:22;;;;;;;0.00;0.00;;;;;;;12.33;75.31;97560.06;7360291;19;20006;-60
2022/11/23 10:58:48;;;;;;;0.05;0.05;;;;;;;12.40;75.50;97562.03;7358970;19;20006;-60
2022/11/23 11:01:17;;;;;;;0.00;0.00;;;;;;;12.55;75.24;97565.22;7359652;19;20011;-59
2022/11/23 11:03:43;;;;;;;0.08;0.08;;;;;;;12.66;74.88;97559.09;7359014;19;20007;-60
2022/11/23 11:06:08;;;;;;;0.05;0.05;;;;;;;12.78;74.72;97562.53;7358685;19;20034;-60
2022/11/23 11:08:46;;;;;;;0.10;0.10;;;;;;;12.83;74.16;97557.75;7359869;19;20014;-60
2022/11/23 11:11:24;;;;;;;0.10;0.10;;;;;;;12.89;74.68;97560.69;7355614;19;20643;-60
2022/11/23 11:13:49;;;;;;;0.00;0.00;;;;;;;12.88;74.59;97576.53;7359534;19;20016;-60
2022/11/23 11:16:23;;;;;;;0.10;0.10;;;;;;;13.08;74.82;97557.38;7356588;19;25366;-59
2022/11/23 11:18:49;;;;;;;0.10;0.10;;;;;;;13.10;74.14;97558.06;7357882;19;20618;-59
2022/11/23 11:21:22;;;;;;;0.00;0.00;;;;;;;13.27;74.62;97551.44;7356473;19;20003;-59
2022/11/23 11:24:15;;;;;;;0.10;0.10;;;;;;;13.53;75.63;97551.88;7359536;19;20003;-60
2022/11/23 11:27:14;;;;;;;0.10;0.10;;;;;;;13.74;75.02;97544.81;7256062;19;2004772;-60
2022/11/23 11:29:42;;;;;;;0.00;0.00;;;;;;;13.83;73.39;97542.34;7257270;19;2004218;-58
2022/11/23 11:32:26;;;;;;;0.08;0.08;;;;;;;13.91;73.54;97545.97;7357028;19;20620;-59
2022/11/23 11:35:01;;;;;;;0.05;0.05;;;;;;;14.14;73.55;97567.59;7360537;19;20034;-60
2022/11/23 11:37:40;;;;;;;0.10;0.10;;;;;;;14.34;72.01;97580.75;7357961;19;20109;-58
2022/11/23 11:40:27;;;;;;;0.10;0.10;;;;;;;14.36;71.89;97584.09;7358488;19;20014;-59
2022/11/23 11:43:27;;;;;;;0.10;0.10;;;;;;;14.38;72.19;97595.25;7358960;19;20025;-60